Ingersoll, Canada
Current Conditions -  °F | °C
As of 6:00 AM on Sunday 23 Nov 2014 (Local Time) from CYXU Reporting Station
Broken Clouds Broken Clouds  
Wind Chill: 43°   Ceiling: 3600
Heat Index: 43°   Visibility: 8mi
Dew Point: 39°   Wind: 3mph
Humidity: 87%   Direction: 160°SSE
Pressure: 29.95"   Gusts: NA
Location:  43.04°N, 80.88°W
Report Text: CYXU 231100Z 16003KT 8SM SCT025 BKN036 06/04 A2995 RMK CF4SC3 BR SLP149
Loading
Personal Weather Stations






























Interactive Weather Map New forecast layout! Learn more

10-Day Weather Forecast

Advertisements
Track Severe Weather on mobile